createdAt,value
2023-12-09T00:01:34.310Z,3.00
2023-12-09T00:04:20.750Z,2.72
2023-12-09T00:07:07.432Z,2.58
2023-12-09T00:09:53.907Z,3.17
2023-12-09T00:12:40.106Z,3.00
2023-12-09T00:15:26.600Z,2.88
2023-12-09T00:18:13.322Z,3.03
2023-12-09T00:21:00.897Z,3.33
2023-12-09T00:23:48.586Z,2.60
2023-12-09T00:26:36.759Z,2.65
2023-12-09T00:29:23.746Z,2.65
2023-12-09T00:32:10.793Z,3.05
2023-12-09T00:34:57.443Z,3.00
2023-12-09T00:37:44.140Z,3.15
2023-12-09T00:40:30.825Z,2.83
2023-12-09T00:46:05.846Z,2.20
2023-12-09T00:48:52.643Z,3.75
2023-12-09T00:54:27.122Z,2.92
2023-12-09T00:57:13.843Z,2.78
2023-12-09T01:00:00.623Z,3.05
2023-12-09T01:02:47.005Z,3.00
2023-12-09T01:05:33.559Z,3.22
2023-12-09T01:08:20.084Z,2.67
2023-12-09T01:11:06.987Z,3.05
2023-12-09T01:13:53.135Z,2.97
2023-12-09T01:16:39.297Z,2.88
2023-12-09T01:19:25.934Z,3.70
2023-12-09T01:22:12.309Z,3.75
2023-12-09T01:24:59.032Z,3.45
2023-12-09T01:27:47.094Z,3.65
2023-12-09T01:30:33.424Z,3.40
2023-12-09T01:33:20.035Z,3.95
2023-12-09T01:36:06.686Z,3.10
2023-12-09T01:38:53.285Z,3.25
2023-12-09T01:41:39.901Z,3.67
2023-12-09T01:47:13.713Z,2.95
2023-12-09T01:50:01.341Z,3.03
2023-12-09T01:52:48.679Z,2.75
2023-12-09T01:55:35.249Z,3.15
2023-12-09T01:58:21.845Z,3.55
2023-12-09T02:01:09.230Z,2.85
2023-12-09T02:03:56.591Z,3.00
2023-12-09T02:06:44.806Z,3.17
2023-12-09T02:09:33.350Z,3.40
2023-12-09T02:12:30.062Z,3.13
2023-12-09T02:15:46.992Z,2.78
2023-12-09T02:18:36.473Z,2.53
2023-12-09T02:21:23.882Z,3.55
2023-12-09T02:24:10.237Z,3.22
2023-12-09T02:27:08.611Z,3.08
2023-12-09T02:30:05.170Z,3.50
2023-12-09T02:32:53.116Z,3.03
2023-12-09T02:35:42.190Z,3.50
2023-12-09T02:38:29.779Z,3.30
2023-12-09T02:41:17.744Z,3.15
2023-12-09T02:44:06.099Z,3.40
2023-12-09T02:46:59.073Z,3.10
2023-12-09T02:49:46.151Z,2.75
2023-12-09T02:52:32.569Z,3.17
2023-12-09T02:55:19.225Z,3.55
2023-12-09T02:58:07.041Z,3.30
2023-12-09T03:00:53.560Z,3.10
2023-12-09T03:03:40.974Z,3.00
2023-12-09T03:06:27.366Z,2.67
2023-12-09T03:09:13.643Z,3.10
2023-12-09T03:14:47.674Z,3.13
2023-12-09T03:17:35.310Z,2.75
2023-12-09T03:20:22.200Z,2.72
2023-12-09T03:23:08.871Z,2.88
2023-12-09T03:25:55.243Z,2.42
2023-12-09T03:28:42.780Z,2.63
2023-12-09T03:31:29.580Z,2.47
2023-12-09T03:34:16.491Z,3.03
2023-12-09T03:37:02.938Z,3.40
2023-12-09T03:39:49.124Z,3.13
2023-12-09T03:42:35.310Z,2.83
2023-12-09T03:45:21.688Z,3.05
2023-12-09T03:48:08.234Z,2.90
2023-12-09T03:50:54.830Z,2.38
2023-12-09T03:53:42.850Z,2.70
2023-12-09T03:56:29.187Z,2.78
2023-12-09T03:59:15.137Z,3.00
2023-12-09T04:02:01.263Z,2.50
2023-12-09T04:04:47.687Z,2.55
2023-12-09T04:07:33.995Z,2.33
2023-12-09T04:10:20.157Z,2.55
2023-12-09T04:13:06.470Z,2.28
2023-12-09T04:15:52.437Z,2.55
2023-12-09T04:18:38.647Z,2.92
2023-12-09T04:21:24.667Z,3.05
2023-12-09T04:24:10.628Z,2.58
2023-12-09T04:26:56.816Z,2.30
2023-12-09T04:29:42.936Z,2.50
2023-12-09T04:32:33.016Z,2.65
2023-12-09T04:35:19.384Z,3.38
2023-12-09T04:38:06.088Z,2.70
2023-12-09T04:40:52.284Z,2.65
2023-12-09T04:43:39.966Z,2.20
2023-12-09T04:46:26.307Z,2.60
2023-12-09T04:49:12.420Z,2.75
2023-12-09T04:51:59.146Z,2.38
2023-12-09T04:54:45.708Z,2.72
2023-12-09T04:57:32.760Z,2.90
2023-12-09T05:00:19.477Z,2.72
2023-12-09T05:03:05.649Z,2.15
2023-12-09T05:05:51.667Z,2.55
2023-12-09T05:08:40.183Z,2.65
2023-12-09T05:11:26.464Z,3.08
2023-12-09T05:14:12.907Z,2.70
2023-12-09T05:16:59.965Z,2.30
2023-12-09T05:19:46.261Z,2.70
2023-12-09T05:22:32.756Z,2.72
2023-12-09T05:25:19.077Z,2.55
2023-12-09T05:28:05.738Z,3.00
2023-12-09T05:30:52.515Z,2.88
2023-12-09T05:33:38.933Z,2.30
2023-12-09T05:36:25.340Z,2.38
2023-12-09T05:39:11.559Z,2.25
2023-12-09T05:41:57.772Z,2.75
2023-12-09T05:44:46.615Z,2.20
2023-12-09T05:47:32.784Z,2.13
2023-12-09T05:50:19.006Z,2.63
2023-12-09T05:53:05.139Z,2.22
2023-12-09T05:55:51.238Z,1.88
2023-12-09T05:58:38.759Z,2.13
2023-12-09T06:01:25.140Z,2.53
2023-12-09T06:04:11.286Z,2.58
2023-12-09T06:06:57.708Z,2.60
2023-12-09T06:09:44.537Z,2.30
2023-12-09T06:12:30.911Z,2.22
2023-12-09T06:15:18.021Z,2.30
2023-12-09T06:18:04.160Z,2.35
2023-12-09T06:20:50.295Z,2.40
2023-12-09T06:23:38.162Z,2.38
2023-12-09T06:26:24.295Z,2.15
2023-12-09T06:29:12.774Z,2.30
2023-12-09T06:31:58.907Z,2.13
2023-12-09T06:34:45.034Z,2.65
2023-12-09T06:37:31.382Z,2.10
2023-12-09T06:40:17.501Z,2.33
2023-12-09T06:43:03.722Z,1.80
2023-12-09T06:45:49.896Z,2.15
2023-12-09T06:48:39.432Z,1.85
2023-12-09T06:51:26.329Z,2.10
2023-12-09T06:54:12.980Z,1.77
2023-12-09T06:56:59.674Z,2.22
2023-12-09T06:59:45.858Z,2.00
2023-12-09T07:02:41.332Z,1.88
2023-12-09T07:05:35.542Z,1.92
2023-12-09T07:08:21.508Z,2.03
2023-12-09T07:11:07.850Z,1.77
2023-12-09T07:13:55.089Z,2.47
2023-12-09T07:16:41.506Z,2.10
2023-12-09T07:19:28.130Z,2.40
2023-12-09T07:22:14.402Z,2.08
2023-12-09T07:25:00.503Z,2.17
2023-12-09T07:27:46.482Z,2.08
2023-12-09T07:30:32.648Z,2.00
2023-12-09T07:33:18.969Z,2.13
2023-12-09T07:36:06.065Z,2.20
2023-12-09T07:41:38.975Z,2.10
2023-12-09T07:44:25.430Z,2.03
2023-12-09T07:47:11.937Z,1.73
2023-12-09T07:49:58.021Z,2.00
2023-12-09T07:52:44.087Z,1.58
2023-12-09T07:55:30.392Z,2.45
2023-12-09T07:58:16.854Z,2.13
2023-12-09T08:01:05.129Z,2.75
2023-12-09T08:03:53.792Z,3.00
2023-12-09T08:06:40.382Z,2.47
2023-12-09T08:09:26.382Z,2.28
2023-12-09T08:12:13.448Z,2.40
2023-12-09T08:14:59.665Z,2.28
2023-12-09T08:17:45.914Z,2.28
2023-12-09T08:20:32.064Z,2.35
2023-12-09T08:23:17.951Z,2.22
2023-12-09T08:26:05.126Z,2.20
2023-12-09T08:28:51.465Z,2.22
2023-12-09T08:31:37.731Z,2.20
2023-12-09T08:34:23.773Z,2.42
2023-12-09T08:37:09.904Z,2.33
2023-12-09T08:39:57.428Z,2.15
2023-12-09T08:42:45.495Z,2.22
2023-12-09T08:45:33.072Z,2.10
2023-12-09T08:48:19.854Z,2.30
2023-12-09T08:51:06.452Z,2.10
2023-12-09T08:53:52.750Z,2.17
2023-12-09T08:56:38.841Z,2.20
2023-12-09T08:59:24.891Z,2.20
2023-12-09T09:02:11.315Z,2.22
2023-12-09T09:04:57.454Z,2.17
2023-12-09T09:07:46.994Z,2.38
2023-12-09T09:10:32.951Z,1.98
2023-12-09T09:13:19.124Z,2.17
2023-12-09T09:16:05.601Z,2.10
2023-12-09T09:18:52.084Z,2.28
2023-12-09T09:21:38.341Z,1.80
2023-12-09T09:24:24.423Z,2.78
2023-12-09T09:27:10.582Z,2.42
2023-12-09T09:29:56.924Z,2.60
2023-12-09T09:32:43.168Z,2.65
2023-12-09T09:35:29.445Z,2.58
2023-12-09T09:38:15.487Z,3.15
2023-12-09T09:41:07.975Z,2.83
2023-12-09T09:44:03.768Z,2.55
2023-12-09T09:46:56.841Z,2.47
2023-12-09T09:49:46.549Z,2.47
2023-12-09T09:52:36.864Z,2.63
2023-12-09T09:55:26.694Z,2.70
2023-12-09T09:58:14.358Z,2.15
2023-12-09T10:01:02.602Z,2.10
2023-12-09T10:03:53.178Z,1.95
2023-12-09T10:06:40.928Z,2.20
2023-12-09T10:09:27.509Z,2.13
2023-12-09T10:12:14.507Z,2.25
2023-12-09T10:15:04.754Z,2.10
2023-12-09T10:17:52.124Z,1.90
2023-12-09T10:20:38.514Z,1.83
2023-12-09T10:23:24.625Z,1.80
2023-12-09T10:26:11.118Z,1.58
2023-12-09T10:28:57.249Z,1.30
2023-12-09T10:31:43.461Z,1.52
2023-12-09T10:34:30.147Z,1.90
2023-12-09T10:37:20.365Z,1.48
2023-12-09T10:40:08.074Z,1.50
2023-12-09T10:42:54.376Z,1.60
2023-12-09T10:45:40.312Z,1.85
2023-12-09T10:48:27.215Z,1.45
2023-12-09T10:53:59.698Z,1.40
2023-12-09T10:56:46.038Z,1.52
2023-12-09T11:02:22.126Z,1.17
2023-12-09T11:05:11.039Z,1.85
2023-12-09T11:07:58.715Z,1.75
2023-12-09T11:10:46.554Z,1.90
2023-12-09T11:13:45.718Z,1.40
2023-12-09T11:16:32.348Z,1.70
2023-12-09T11:22:05.731Z,1.75
2023-12-09T11:24:53.312Z,1.58
2023-12-09T11:27:39.847Z,2.20
2023-12-09T11:30:35.251Z,1.70
2023-12-09T11:33:22.031Z,1.60
2023-12-09T11:36:08.976Z,1.85
2023-12-09T11:38:56.055Z,1.80
2023-12-09T11:41:42.723Z,1.70
2023-12-09T11:44:29.977Z,2.10
2023-12-09T11:47:17.739Z,1.40
2023-12-09T11:50:05.290Z,1.50
2023-12-09T11:52:52.270Z,1.50
2023-12-09T11:55:40.613Z,1.40
2023-12-09T11:58:27.403Z,1.67
2023-12-09T12:04:00.465Z,2.03
2023-12-09T12:06:46.942Z,1.75
2023-12-09T12:09:33.134Z,1.65
2023-12-09T12:12:20.974Z,1.52
2023-12-09T12:15:08.163Z,1.50
2023-12-09T12:17:54.473Z,1.52
2023-12-09T12:20:41.135Z,1.40
2023-12-09T12:23:32.745Z,1.50
2023-12-09T12:26:19.364Z,1.58
2023-12-09T12:29:05.695Z,1.60
2023-12-09T12:31:51.882Z,1.63
2023-12-09T12:34:44.930Z,1.60
2023-12-09T12:37:31.760Z,1.33
2023-12-09T12:40:19.464Z,1.25
2023-12-09T12:43:05.742Z,1.50
2023-12-09T12:48:39.581Z,1.70
2023-12-09T12:51:27.123Z,1.23
2023-12-09T12:54:13.312Z,1.40
2023-12-09T12:56:59.455Z,1.80
2023-12-09T12:59:45.881Z,1.23
2023-12-09T13:02:34.085Z,1.65
2023-12-09T13:05:20.351Z,1.60
2023-12-09T13:08:06.517Z,1.80
2023-12-09T13:10:52.825Z,1.85
2023-12-09T13:13:38.772Z,1.80
2023-12-09T13:16:24.907Z,1.67
2023-12-09T13:21:57.704Z,2.10
2023-12-09T13:27:30.385Z,1.48
2023-12-09T13:30:16.693Z,1.58
2023-12-09T13:33:04.028Z,1.27
2023-12-09T13:35:50.634Z,1.35
2023-12-09T13:38:36.936Z,1.50
2023-12-09T13:44:12.874Z,1.70
2023-12-09T13:46:59.539Z,1.60
2023-12-09T13:49:46.188Z,2.70
2023-12-09T13:52:33.207Z,1.80
2023-12-09T13:58:08.089Z,2.08
2023-12-09T14:00:54.244Z,1.70
2023-12-09T14:06:26.976Z,1.63
2023-12-09T14:09:15.899Z,1.73
2023-12-09T14:12:02.478Z,2.00
2023-12-09T14:14:48.710Z,2.28
2023-12-09T14:17:35.034Z,1.70
2023-12-09T14:20:21.489Z,2.08
2023-12-09T14:23:07.826Z,1.95
2023-12-09T14:28:40.332Z,2.03
2023-12-09T14:31:26.553Z,1.80
2023-12-09T14:34:13.135Z,1.98
2023-12-09T14:39:45.935Z,2.05
2023-12-09T14:42:32.718Z,2.03
2023-12-09T14:45:18.849Z,1.90
2023-12-09T14:48:19.084Z,1.80
2023-12-09T14:51:08.683Z,1.88
2023-12-09T14:53:59.452Z,2.08
2023-12-09T14:56:47.331Z,2.08
2023-12-09T14:59:34.523Z,2.85
2023-12-09T15:02:21.532Z,3.25
2023-12-09T15:05:09.206Z,2.35
2023-12-09T15:07:56.358Z,2.08
2023-12-09T15:10:42.860Z,2.03
2023-12-09T15:13:30.043Z,2.10
2023-12-09T15:16:18.309Z,2.53
2023-12-09T15:19:05.589Z,2.55
2023-12-09T15:21:52.522Z,2.20
2023-12-09T15:24:39.942Z,2.10
2023-12-09T15:27:26.773Z,2.20
2023-12-09T15:30:16.813Z,2.00
2023-12-09T15:33:03.675Z,2.38
2023-12-09T15:35:50.083Z,2.40
2023-12-09T15:38:36.859Z,2.60
2023-12-09T15:41:24.328Z,2.00
2023-12-09T15:44:14.020Z,2.17
2023-12-09T15:47:02.534Z,2.35
2023-12-09T15:49:51.759Z,2.72
2023-12-09T15:52:42.403Z,2.42
2023-12-09T15:55:31.947Z,2.10
2023-12-09T15:58:19.216Z,2.65
2023-12-09T16:01:13.114Z,3.20
2023-12-09T16:04:08.228Z,2.90
2023-12-09T16:06:55.322Z,3.60
2023-12-09T16:09:47.951Z,2.42
2023-12-09T16:12:40.907Z,3.10
2023-12-09T16:15:27.853Z,3.00
2023-12-09T16:18:15.101Z,2.42
2023-12-09T16:21:04.132Z,2.92
2023-12-09T16:23:51.590Z,2.97
2023-12-09T16:26:38.217Z,2.88
2023-12-09T16:29:24.607Z,8.45
2023-12-09T16:32:12.135Z,4.32
2023-12-09T16:34:58.974Z,3.17
2023-12-09T16:37:46.074Z,2.45
2023-12-09T16:40:34.481Z,2.60
2023-12-09T16:43:21.081Z,2.60
2023-12-09T16:46:07.711Z,3.15
2023-12-09T16:48:54.480Z,3.38
2023-12-09T16:51:41.340Z,3.10
2023-12-09T16:54:27.440Z,3.42
2023-12-09T16:57:16.346Z,2.55
2023-12-09T17:00:02.896Z,3.20
2023-12-09T17:02:49.222Z,3.08
2023-12-09T17:05:35.980Z,2.63
2023-12-09T17:08:22.544Z,3.28
2023-12-09T17:11:09.114Z,2.88
2023-12-09T17:13:55.442Z,2.38
2023-12-09T17:16:42.959Z,2.53
2023-12-09T17:19:30.158Z,2.72
2023-12-09T17:22:16.812Z,2.78
2023-12-09T17:25:04.225Z,2.72
2023-12-09T17:27:51.905Z,2.65
2023-12-09T17:30:40.248Z,3.22
2023-12-09T17:33:26.634Z,3.35
2023-12-09T17:36:13.616Z,2.63
2023-12-09T17:39:00.040Z,3.10
2023-12-09T17:41:46.391Z,3.17
2023-12-09T17:44:34.687Z,2.65
2023-12-09T17:47:20.923Z,3.78
2023-12-09T17:50:07.534Z,3.50
2023-12-09T17:52:54.016Z,2.53
2023-12-09T17:55:40.364Z,2.75
2023-12-09T17:58:27.503Z,2.63
2023-12-09T18:01:14.492Z,2.38
2023-12-09T18:04:01.108Z,2.25
2023-12-09T18:06:47.956Z,2.20
2023-12-09T18:09:34.187Z,2.55
2023-12-09T18:12:20.471Z,1.98
2023-12-09T18:15:07.768Z,2.00
2023-12-09T18:17:54.946Z,2.33
2023-12-09T18:23:27.517Z,2.20
2023-12-09T18:26:13.819Z,2.08
2023-12-09T18:29:00.827Z,2.70
2023-12-09T18:31:48.554Z,2.60
2023-12-09T18:34:35.077Z,2.38
2023-12-09T18:37:23.040Z,2.17
2023-12-09T18:40:13.599Z,2.65
2023-12-09T18:43:00.756Z,2.20
2023-12-09T18:45:47.426Z,2.45
2023-12-09T18:48:34.075Z,3.65
2023-12-09T18:51:20.376Z,2.33
2023-12-09T18:54:07.098Z,2.55
2023-12-09T18:56:54.021Z,2.20
2023-12-09T18:59:41.060Z,4.60
2023-12-09T19:02:28.680Z,2.90
2023-12-09T19:05:15.758Z,2.30
2023-12-09T19:10:49.503Z,2.05
2023-12-09T19:13:36.447Z,2.25
2023-12-09T19:16:22.991Z,2.38
2023-12-09T19:21:57.100Z,2.15
2023-12-09T19:24:44.329Z,2.65
2023-12-09T19:27:30.820Z,2.78
2023-12-09T19:30:18.604Z,2.65
2023-12-09T19:33:05.754Z,2.45
2023-12-09T19:38:39.010Z,2.45
2023-12-09T19:41:25.591Z,2.33
2023-12-09T19:44:12.118Z,2.30
2023-12-09T19:46:59.944Z,2.17
2023-12-09T19:49:46.722Z,2.20
2023-12-09T19:52:35.343Z,2.38
2023-12-09T19:55:21.912Z,2.25
2023-12-09T19:58:08.814Z,2.85
2023-12-09T20:03:41.845Z,2.28
2023-12-09T20:06:29.545Z,2.63
2023-12-09T20:09:16.145Z,2.90
2023-12-09T20:12:02.585Z,2.42
2023-12-09T20:14:49.328Z,2.33
2023-12-09T20:20:27.275Z,2.40
2023-12-09T20:23:13.902Z,2.50
2023-12-09T20:26:00.729Z,2.13
2023-12-09T20:28:47.223Z,2.95
2023-12-09T20:31:33.798Z,2.33
2023-12-09T20:34:20.563Z,2.10
2023-12-09T20:39:58.055Z,2.20
2023-12-09T20:42:44.650Z,2.00
2023-12-09T20:45:32.229Z,2.15
2023-12-09T20:48:20.527Z,2.60
2023-12-09T20:51:08.796Z,1.77
2023-12-09T20:53:55.418Z,1.55
2023-12-09T20:56:42.189Z,1.30
2023-12-09T20:59:28.968Z,1.77
2023-12-09T21:02:15.594Z,1.70
2023-12-09T21:05:04.540Z,1.50
2023-12-09T21:07:55.295Z,1.60
2023-12-09T21:10:41.736Z,1.23
2023-12-09T21:13:28.231Z,1.52
2023-12-09T21:16:14.921Z,7.38
2023-12-09T21:19:02.092Z,1.60
2023-12-09T21:24:35.172Z,1.50
2023-12-09T21:27:21.395Z,2.08
2023-12-09T21:30:08.403Z,1.70
2023-12-09T21:32:55.357Z,1.13
2023-12-09T21:35:41.728Z,1.42
2023-12-09T21:38:27.993Z,3.17
2023-12-09T21:41:21.741Z,1.90
2023-12-09T21:44:09.126Z,1.52
2023-12-09T21:46:55.745Z,1.50
2023-12-09T21:49:42.317Z,1.60
2023-12-09T21:52:28.823Z,1.67
2023-12-09T21:55:15.316Z,1.55
2023-12-09T21:58:01.678Z,1.17
2023-12-09T22:00:48.833Z,1.50
2023-12-09T22:03:35.410Z,1.23
2023-12-09T22:06:21.948Z,1.25
2023-12-09T22:09:08.246Z,1.85
2023-12-09T22:11:55.040Z,1.48
2023-12-09T22:14:41.671Z,1.40
2023-12-09T22:17:28.654Z,4.60
2023-12-09T22:23:01.434Z,1.05
2023-12-09T22:25:47.637Z,1.50
2023-12-09T22:28:34.095Z,0.90
2023-12-09T22:31:20.264Z,1.00
2023-12-09T22:34:07.388Z,1.17
2023-12-09T22:36:53.504Z,0.73
2023-12-09T22:39:40.215Z,1.05
2023-12-09T22:42:27.777Z,1.52
2023-12-09T22:45:15.460Z,1.00
2023-12-09T22:48:02.749Z,0.77
2023-12-09T22:50:49.181Z,0.57
2023-12-09T22:53:35.753Z,0.82
2023-12-09T22:56:29.758Z,0.70
2023-12-09T22:59:15.996Z,0.60
2023-12-09T23:02:06.295Z,0.50
2023-12-09T23:04:52.460Z,0.10
2023-12-09T23:07:38.912Z,0.43
2023-12-09T23:10:25.581Z,0.63
2023-12-09T23:13:12.137Z,0.30
2023-12-09T23:15:58.962Z,0.40
2023-12-09T23:18:45.136Z,0.47
2023-12-09T23:21:31.749Z,0.13
2023-12-09T23:24:17.910Z,0.20
2023-12-09T23:27:04.218Z,0.38
2023-12-09T23:29:50.766Z,0.32
2023-12-09T23:32:37.247Z,0.45
2023-12-09T23:35:23.494Z,0.80
2023-12-09T23:38:10.118Z,0.60
2023-12-09T23:40:56.241Z,0.30
2023-12-09T23:43:43.365Z,0.50
2023-12-09T23:46:29.945Z,0.65
2023-12-09T23:49:16.300Z,0.60
2023-12-09T23:52:02.768Z,0.73
2023-12-09T23:54:49.117Z,0.28
2023-12-09T23:57:35.077Z,0.50
